Time;durP1;ratioP1;P1;durP2;ratioP2;P2;SDS_P1;SDS_P2;PMS_P1;PMS_P2;Temp;Humidity;BMP_temperature;BMP_pressure;BME280_temperature;BME280_humidity;BME280_pressure;Samples;Min_cycle;Max_cycle;Signal;HPM_P1;HPM_P2
2023/07/22 00:01:32;;;;;;;;;;;;;;;32.80;32.00;97695.09;5114315;28;19916;-88
2023/07/22 00:03:58;;;;;;;;;;;;;;;32.95;31.66;97696.53;5114053;28;19952;-88
2023/07/22 00:06:24;;;;;;;;;;;;;;;32.62;32.25;97696.22;5114544;28;20363;-88
2023/07/22 00:08:50;;;;;;;;;;;;;;;32.58;32.01;97692.84;5113904;28;19971;-89
2023/07/22 00:11:16;;;;;;;;;;;;;;;32.35;32.97;97694.59;5114174;28;19916;-89
2023/07/22 00:13:43;;;;;;;;;;;;;;;32.37;32.76;97700.56;5087015;28;19923;-89
2023/07/22 00:16:10;;;;;;;;;;;;;;;32.53;32.55;97702.88;5093733;28;20376;-89
2023/07/22 00:18:36;;;;;;;;;;;;;;;32.67;32.15;97701.19;5075620;28;19916;-89
2023/07/22 00:21:02;;;;;;;;;;;;;;;32.78;32.21;97697.66;5092116;28;19923;-89
2023/07/22 00:23:29;;;;;;;;;;;;;;;32.70;32.29;97692.41;5093639;28;19916;-89
2023/07/22 00:25:55;;;;;;;;;;;;;;;32.55;32.48;97690.97;5093347;28;19916;-89
2023/07/22 00:28:21;;;;;;;;;;;;;;;32.45;32.60;97686.72;5101315;28;19938;-89
2023/07/22 00:30:49;;;;;;;;;;;;;;;32.58;32.12;97690.00;5113031;28;19915;-89
2023/07/22 00:33:15;;;;;;;;;;;;;;;32.25;32.86;97684.69;5114188;28;20334;-88
2023/07/22 00:35:41;;;;;;;;;;;;;;;31.69;34.09;97688.88;5113596;28;19942;-88
2023/07/22 00:38:07;;;;;;;;;;;;;;;31.72;33.74;97673.66;5114007;28;20375;-88
2023/07/22 00:40:33;;;;;;;;;;;;;;;31.97;33.32;97680.75;5113920;28;20065;-89
2023/07/22 00:42:59;;;;;;;;;;;;;;;32.00;33.18;97680.50;5113922;28;19977;-89
2023/07/22 00:45:25;;;;;;;;;;;;;;;31.82;33.39;97675.09;5113948;28;20078;-89
2023/07/22 00:47:51;;;;;;;;;;;;;;;31.82;33.61;97674.31;5113051;28;20283;-89
2023/07/22 00:50:18;;;;;;;;;;;;;;;32.08;32.87;97680.88;5113614;28;19923;-89
2023/07/22 00:52:44;;;;;;;;;;;;;;;32.40;32.42;97670.38;5117276;28;19922;-89
2023/07/22 00:55:10;;;;;;;;;;;;;;;32.62;31.67;97667.78;5117720;28;19922;-89
2023/07/22 00:57:37;;;;;;;;;;;;;;;32.61;32.05;97661.31;5116690;28;19915;-89
2023/07/22 01:00:05;;;;;;;;;;;;;;;32.32;32.13;97660.75;5117752;28;19985;-89
2023/07/22 01:02:31;;;;;;;;;;;;;;;32.17;32.32;97657.22;5117588;28;20352;-89
2023/07/22 01:04:57;;;;;;;;;;;;;;;32.40;32.22;97647.63;5116598;28;19923;-89
2023/07/22 01:07:24;;;;;;;;;;;;;;;32.20;31.75;97650.53;5117629;28;19965;-89
2023/07/22 01:09:55;;;;;;;;;;;;;;;32.41;31.33;97635.78;5117546;28;19941;-89
2023/07/22 01:12:21;;;;;;;;;;;;;;;32.63;31.31;97636.00;5117255;28;19916;-89
2023/07/22 01:14:47;;;;;;;;;;;;;;;32.77;30.96;97630.72;5117084;28;20385;-89
2023/07/22 01:17:14;;;;;;;;;;;;;;;32.88;31.22;97628.72;5117466;28;20010;-89
2023/07/22 01:19:40;;;;;;;;;;;;;;;32.66;30.95;97626.47;5117285;28;19922;-89
2023/07/22 01:22:10;;;;;;;;;;;;;;;32.55;31.66;97614.22;5105018;28;20361;-90
2023/07/22 01:24:37;;;;;;;;;;;;;;;32.32;31.48;97618.13;5096642;28;19920;-89
2023/07/22 01:27:08;;;;;;;;;;;;;;;32.17;31.96;97615.38;5096567;28;19916;-89
2023/07/22 01:29:34;;;;;;;;;;;;;;;32.12;31.93;97615.31;5101621;28;19920;-89
2023/07/22 01:32:00;;;;;;;;;;;;;;;32.19;30.95;97612.81;5117058;28;19926;-89
2023/07/22 01:34:26;;;;;;;;;;;;;;;32.06;31.60;97618.09;5098708;28;20363;-89
2023/07/22 01:36:52;;;;;;;;;;;;;;;32.04;31.49;97609.31;5116914;28;19920;-89
2023/07/22 01:39:19;;;;;;;;;;;;;;;32.02;31.33;97615.47;5116169;28;20401;-89
2023/07/22 01:41:45;;;;;;;;;;;;;;;32.03;31.14;97617.03;5116560;28;19924;-89
2023/07/22 01:44:11;;;;;;;;;;;;;;;31.99;31.23;97619.31;5116824;28;19916;-88
2023/07/22 01:46:37;;;;;;;;;;;;;;;32.04;31.35;97624.28;5116796;28;20378;-88
2023/07/22 01:49:05;;;;;;;;;;;;;;;32.02;31.43;97626.06;5116779;28;19937;-89
2023/07/22 01:51:32;;;;;;;;;;;;;;;32.10;31.05;97635.69;5116659;28;19916;-89
2023/07/22 01:53:58;;;;;;;;;;;;;;;32.23;31.04;97632.50;5098103;28;19916;-89
2023/07/22 01:56:24;;;;;;;;;;;;;;;32.30;30.66;97632.06;5115514;28;20264;-89
2023/07/22 01:58:50;;;;;;;;;;;;;;;32.01;31.55;97647.22;5106906;27;19921;-89
2023/07/22 02:01:16;;;;;;;;;;;;;;;31.85;31.87;97644.94;5114765;28;19916;-89
2023/07/22 02:03:42;;;;;;;;;;;;;;;32.05;31.11;97642.88;5115305;28;19922;-89
2023/07/22 02:06:08;;;;;;;;;;;;;;;32.15;31.28;97651.25;5098275;28;19927;-89
2023/07/22 02:08:36;;;;;;;;;;;;;;;32.25;31.01;97658.34;5116408;28;19923;-89
2023/07/22 02:11:06;;;;;;;;;;;;;;;32.11;31.04;97657.16;5116363;28;19916;-89
2023/07/22 02:13:33;;;;;;;;;;;;;;;31.97;31.01;97663.72;5115404;28;19961;-89
2023/07/22 02:15:59;;;;;;;;;;;;;;;32.15;31.54;97656.94;5116134;28;19915;-89
2023/07/22 02:18:26;;;;;;;;;;;;;;;32.13;31.25;97659.50;5116108;28;19955;-89
2023/07/22 02:20:52;;;;;;;;;;;;;;;32.25;30.75;97669.69;5116101;28;19916;-89
2023/07/22 02:23:18;;;;;;;;;;;;;;;32.13;31.17;97668.81;5109492;28;19922;-89
2023/07/22 02:25:48;;;;;;;;;;;;;;;32.19;31.32;97678.16;5095389;28;19978;-89
2023/07/22 02:28:15;;;;;;;;;;;;;;;32.32;31.44;97680.63;5095553;28;19923;-89
2023/07/22 02:30:41;;;;;;;;;;;;;;;32.20;31.35;97676.09;5096067;28;20418;-89
2023/07/22 02:33:08;;;;;;;;;;;;;;;32.11;31.47;97677.03;5095515;28;19915;-89
2023/07/22 02:35:34;;;;;;;;;;;;;;;32.24;31.03;97670.97;5095270;28;19920;-89
2023/07/22 02:38:02;;;;;;;;;;;;;;;31.94;31.56;97685.34;5095493;28;20370;-89
2023/07/22 02:40:28;;;;;;;;;;;;;;;31.76;31.94;97679.94;5095249;28;19916;-89
2023/07/22 02:42:54;;;;;;;;;;;;;;;31.74;31.77;97693.81;5095405;28;19923;-89
2023/07/22 02:45:20;;;;;;;;;;;;;;;31.89;31.75;97682.41;5095259;28;20333;-89
2023/07/22 02:47:46;;;;;;;;;;;;;;;31.94;31.91;97687.38;5095871;28;19920;-89
2023/07/22 02:50:12;;;;;;;;;;;;;;;31.89;32.06;97688.09;5095201;28;19969;-89
2023/07/22 02:52:38;;;;;;;;;;;;;;;31.86;31.83;97687.03;5095881;28;19916;-89
2023/07/22 02:55:12;;;;;;;;;;;;;;;31.74;32.13;97679.63;5115222;28;19916;-88
2023/07/22 02:57:39;;;;;;;;;;;;;;;31.97;31.68;97690.03;5115668;28;19965;-89
2023/07/22 03:00:08;;;;;;;;;;;;;;;32.17;31.22;97682.78;5115146;28;19919;-89
2023/07/22 03:02:38;;;;;;;;;;;;;;;32.17;30.99;97682.78;5115323;28;19923;-89
2023/07/22 03:05:07;;;;;;;;;;;;;;;32.32;30.67;97684.25;5114781;28;20287;-89
2023/07/22 03:07:34;;;;;;;;;;;;;;;32.38;30.41;97685.09;5115150;28;19962;-89
2023/07/22 03:10:00;;;;;;;;;;;;;;;32.41;30.82;97686.16;5115432;28;19991;-89
2023/07/22 03:12:27;;;;;;;;;;;;;;;32.35;30.91;97685.31;5115202;28;19968;-89
2023/07/22 03:14:53;;;;;;;;;;;;;;;32.41;30.65;97686.94;5114672;28;19919;-89
2023/07/22 03:17:19;;;;;;;;;;;;;;;32.26;30.88;97685.47;5114974;28;19974;-89
2023/07/22 03:19:45;;;;;;;;;;;;;;;32.06;31.01;97683.44;5114407;28;19927;-88
2023/07/22 03:22:13;;;;;;;;;;;;;;;32.11;31.11;97688.41;5105943;28;20014;-88
2023/07/22 03:24:39;;;;;;;;;;;;;;;32.27;30.97;97687.03;5076256;28;19916;-89
2023/07/22 03:27:06;;;;;;;;;;;;;;;32.31;30.95;97698.94;5094559;28;20014;-89
2023/07/22 03:29:32;;;;;;;;;;;;;;;32.31;30.80;97693.28;5094651;28;19916;-89
2023/07/22 03:31:59;;;;;;;;;;;;;;;32.39;31.05;97694.41;5109861;28;19976;-89
2023/07/22 03:34:29;;;;;;;;;;;;;;;32.51;30.48;97698.97;5114785;28;19915;-88
2023/07/22 03:36:55;;;;;;;;;;;;;;;32.56;30.47;97701.06;5113469;28;20396;-88
2023/07/22 03:39:21;;;;;;;;;;;;;;;32.58;30.36;97702.13;5114588;28;19974;-89
2023/07/22 03:41:47;;;;;;;;;;;;;;;32.54;30.30;97706.47;5114571;28;20396;-89
2023/07/22 03:44:14;;;;;;;;;;;;;;;32.45;30.67;97703.75;5114485;28;19916;-89
2023/07/22 03:46:40;;;;;;;;;;;;;;;32.48;30.55;97706.41;5114550;28;19915;-89
2023/07/22 03:49:06;;;;;;;;;;;;;;;32.48;30.77;97708.44;5114434;28;19920;-89
2023/07/22 03:51:32;;;;;;;;;;;;;;;32.56;30.64;97706.75;5114190;28;19925;-89
2023/07/22 03:53:59;;;;;;;;;;;;;;;32.63;30.76;97706.28;5113423;28;19916;-89
2023/07/22 03:56:25;;;;;;;;;;;;;;;32.43;31.33;97709.94;5114604;28;20314;-89
2023/07/22 03:58:51;;;;;;;;;;;;;;;32.40;31.39;97715.84;5114481;28;20311;-89
2023/07/22 04:01:17;;;;;;;;;;;;;;;32.13;32.00;97711.41;5094021;28;19916;-89
2023/07/22 04:03:43;;;;;;;;;;;;;;;32.29;31.44;97713.66;5092594;28;19923;-89
2023/07/22 04:06:09;;;;;;;;;;;;;;;32.29;31.63;97713.66;5093495;28;19924;-89
2023/07/22 04:08:35;;;;;;;;;;;;;;;32.38;31.24;97715.56;5093963;28;19916;-89
2023/07/22 04:11:02;;;;;;;;;;;;;;;32.61;31.09;97718.19;5094356;28;19920;-89
2023/07/22 04:13:28;;;;;;;;;;;;;;;32.57;31.41;97726.16;5093848;28;19916;-88
2023/07/22 04:15:54;;;;;;;;;;;;;;;32.65;31.48;97735.03;5075633;28;19969;-89
2023/07/22 04:18:21;;;;;;;;;;;;;;;32.71;31.53;97736.66;5093897;28;20348;-89
2023/07/22 04:20:50;;;;;;;;;;;;;;;32.35;31.98;97745.00;5110659;28;20395;-88
2023/07/22 04:23:16;;;;;;;;;;;;;;;32.51;31.50;97741.59;5097699;28;19923;-89
2023/07/22 04:25:43;;;;;;;;;;;;;;;32.60;31.04;97744.28;5093700;28;20007;-89
2023/07/22 04:28:09;;;;;;;;;;;;;;;32.26;31.72;97748.75;5101936;28;19923;-89
2023/07/22 04:30:36;;;;;;;;;;;;;;;31.85;32.23;97755.69;5118167;28;19966;-88
2023/07/22 04:33:03;;;;;;;;;;;;;;;31.65;33.09;97750.75;5118525;28;20357;-87
2023/07/22 04:35:32;;;;;;;;;;;;;;;31.59;32.74;97754.78;5117712;28;20003;-89
2023/07/22 04:37:59;;;;;;;;;;;;;;;31.57;33.09;97763.78;5118429;28;20002;-89
2023/07/22 04:40:25;;;;;;;;;;;;;;;31.44;33.21;97768.22;5118136;28;19982;-89
2023/07/22 04:42:51;;;;;;;;;;;;;;;31.50;33.14;97769.88;5118037;28;19957;-89
2023/07/22 04:45:20;;;;;;;;;;;;;;;30.96;34.18;97768.44;5117216;28;19916;-89
2023/07/22 04:47:46;;;;;;;;;;;;;;;30.70;35.21;97781.56;5099640;28;19923;-89
2023/07/22 04:50:13;;;;;;;;;;;;;;;30.63;35.55;97782.72;5117273;28;20012;-89
2023/07/22 04:52:41;;;;;;;;;;;;;;;31.02;34.73;97777.00;5097379;28;19916;-89
2023/07/22 04:55:10;;;;;;;;;;;;;;;31.13;34.82;97778.03;5097324;28;20356;-89
2023/07/22 04:57:36;;;;;;;;;;;;;;;31.66;34.57;97777.88;5097367;28;19969;-89
2023/07/22 05:00:03;;;;;;;;;;;;;;;31.86;34.16;97782.78;5097358;28;19947;-89
2023/07/22 05:02:33;;;;;;;;;;;;;;;32.08;33.82;97783.13;5088889;28;20342;-89
2023/07/22 05:04:59;;;;;;;;;;;;;;;32.37;33.88;97790.75;5096974;28;19955;-89
2023/07/22 05:07:25;;;;;;;;;;;;;;;32.25;33.11;97794.72;5097125;28;20391;-89
2023/07/22 05:09:51;;;;;;;;;;;;;;;32.06;33.81;97788.53;5097147;28;20372;-89
2023/07/22 05:12:18;;;;;;;;;;;;;;;32.22;33.74;97784.34;5097035;28;19920;-89
2023/07/22 05:14:46;;;;;;;;;;;;;;;32.21;34.41;97785.63;5097171;28;19915;-89
2023/07/22 05:17:12;;;;;;;;;;;;;;;32.18;35.21;97780.94;5095663;28;19922;-88
2023/07/22 05:19:38;;;;;;;;;;;;;;;31.82;36.28;97785.84;5097269;28;19916;-89
2023/07/22 05:22:04;;;;;;;;;;;;;;;31.98;34.25;97802.38;5096843;28;20329;-89
2023/07/22 05:24:30;;;;;;;;;;;;;;;31.65;34.13;97801.06;5095511;28;20439;-90
2023/07/22 05:26:56;;;;;;;;;;;;;;;31.95;34.64;97805.41;5096913;28;19952;-89
2023/07/22 05:29:22;;;;;;;;;;;;;;;31.40;35.51;97803.22;5096727;28;19916;-89
2023/07/22 05:31:48;;;;;;;;;;;;;;;31.90;34.80;97803.25;5098719;28;19923;-90
2023/07/22 05:34:14;;;;;;;;;;;;;;;31.81;34.52;97804.16;5116842;28;19920;-90
2023/07/22 05:36:40;;;;;;;;;;;;;;;32.21;33.54;97803.44;5115709;28;19924;-88
2023/07/22 05:39:07;;;;;;;;;;;;;;;31.65;34.75;97806.75;5116921;28;20371;-89
2023/07/22 05:41:33;;;;;;;;;;;;;;;30.90;36.04;97807.22;5116839;28;19923;-90
2023/07/22 05:43:59;;;;;;;;;;;;;;;31.19;35.48;97809.31;5116852;28;19922;-90
2023/07/22 05:46:25;;;;;;;;;;;;;;;31.61;34.48;97818.28;5116849;28;20014;-89
2023/07/22 05:48:51;;;;;;;;;;;;;;;31.02;35.89;97811.03;5116492;28;20427;-90
2023/07/22 05:51:17;;;;;;;;;;;;;;;31.60;35.14;97818.81;5116595;28;20019;-90
2023/07/22 05:53:43;;;;;;;;;;;;;;;31.52;34.45;97815.56;5115891;28;19971;-89
2023/07/22 05:56:10;;;;;;;;;;;;;;;31.51;34.46;97816.06;5116745;28;19960;-89
2023/07/22 05:58:36;;;;;;;;;;;;;;;30.60;35.52;97825.41;5116485;28;20440;-88
2023/07/22 06:01:02;;;;;;;;;;;;;;;30.33;38.07;97822.81;5116369;28;20007;-90
2023/07/22 06:03:28;;;;;;;;;;;;;;;30.55;36.58;97828.94;5116272;28;19919;-89
2023/07/22 06:05:54;;;;;;;;;;;;;;;30.77;34.88;97826.53;5116291;28;19930;-88
2023/07/22 06:08:20;;;;;;;;;;;;;;;30.57;35.76;97827.16;5116432;28;19963;-90
2023/07/22 06:10:46;;;;;;;;;;;;;;;30.08;37.01;97829.72;5106708;28;19919;-88
2023/07/22 06:13:12;;;;;;;;;;;;;;;30.37;35.93;97829.84;5077867;28;20014;-88
2023/07/22 06:15:38;;;;;;;;;;;;;;;30.69;35.98;97837.47;5095880;28;20364;-90
2023/07/22 06:18:08;;;;;;;;;;;;;;;30.76;35.26;97837.09;5095516;28;19916;-91
2023/07/22 06:20:34;;;;;;;;;;;;;;;30.95;34.83;97837.75;5095818;28;19923;-89
2023/07/22 06:23:01;;;;;;;;;;;;;;;30.89;34.93;97836.06;5095781;28;19916;-88
2023/07/22 06:25:27;;;;;;;;;;;;;;;30.21;38.97;97837.97;5095553;28;19917;-89
2023/07/22 06:27:54;;;;;;;;;;;;;;;30.08;37.74;97846.72;5105859;28;20390;-90
2023/07/22 06:30:20;;;;;;;;;;;;;;;30.12;36.06;97849.34;5116111;28;20283;-90
2023/07/22 06:32:46;;;;;;;;;;;;;;;30.76;37.00;97854.09;5115890;28;19916;-90
2023/07/22 06:35:12;;;;;;;;;;;;;;;30.57;35.25;97846.25;5115819;28;19931;-88
2023/07/22 06:37:39;;;;;;;;;;;;;;;29.41;39.60;97849.94;5115732;28;19919;-90
2023/07/22 06:40:05;;;;;;;;;;;;;;;30.07;36.90;97857.25;5097420;28;20307;-88
2023/07/22 06:42:31;;;;;;;;;;;;;;;30.98;34.73;97853.00;5115835;28;19976;-89
2023/07/22 06:44:57;;;;;;;;;;;;;;;31.19;34.04;97861.16;5096162;28;20340;-90
2023/07/22 06:47:23;;;;;;;;;;;;;;;31.13;36.61;97863.13;5115941;28;19916;-88
2023/07/22 06:49:50;;;;;;;;;;;;;;;31.26;33.73;97857.13;5114679;28;20347;-89
2023/07/22 06:52:16;;;;;;;;;;;;;;;31.52;33.72;97868.72;5115734;28;20332;-88
2023/07/22 06:54:42;;;;;;;;;;;;;;;31.84;33.39;97868.47;5115500;28;19916;-88
2023/07/22 06:57:09;;;;;;;;;;;;;;;30.86;35.65;97874.66;5115528;28;20007;-89
2023/07/22 06:59:35;;;;;;;;;;;;;;;31.68;34.02;97868.22;5115362;28;19919;-88
2023/07/22 07:02:01;;;;;;;;;;;;;;;31.71;34.96;97873.69;5114539;28;19927;-88
2023/07/22 07:04:27;;;;;;;;;;;;;;;31.31;32.80;97879.94;5115373;28;20010;-90
2023/07/22 07:06:53;;;;;;;;;;;;;;;30.47;36.47;97890.88;5115204;28;20010;-88
2023/07/22 07:09:19;;;;;;;;;;;;;;;31.85;34.63;97883.47;5115211;28;20260;-89
2023/07/22 07:11:45;;;;;;;;;;;;;;;32.08;32.94;97883.34;5115077;28;19963;-89
2023/07/22 07:14:12;;;;;;;;;;;;;;;32.02;33.13;97891.00;5115001;28;19966;-88
2023/07/22 07:16:37;;;;;;;;;;;;;;;30.81;42.37;97902.91;5113731;27;19942;-86
2023/07/22 07:19:04;;;;;;;;;;;;;;;30.73;39.11;97896.81;5112581;28;20010;-89
2023/07/22 07:21:30;;;;;;;;;;;;;;;30.20;42.19;97898.72;5115027;28;19953;-87
2023/07/22 07:23:56;;;;;;;;;;;;;;;32.19;33.81;97905.44;5115192;28;19916;-88
2023/07/22 07:26:22;;;;;;;;;;;;;;;31.99;33.44;97906.19;5114972;28;19923;-88
2023/07/22 07:28:49;;;;;;;;;;;;;;;32.12;33.90;97899.38;5114856;28;19919;-88
2023/07/22 07:31:15;;;;;;;;;;;;;;;32.58;32.96;97912.50;5114309;28;19927;-88
2023/07/22 07:33:41;;;;;;;;;;;;;;;33.55;32.71;97909.03;5115035;28;19961;-89
2023/07/22 07:36:07;;;;;;;;;;;;;;;33.43;32.91;97910.97;5083850;28;19928;-88
2023/07/22 07:38:33;;;;;;;;;;;;;;;32.11;38.80;97912.03;5094343;28;19942;-88
2023/07/22 07:41:00;;;;;;;;;;;;;;;33.22;30.20;97922.88;5094189;28;19917;-88
2023/07/22 07:43:26;;;;;;;;;;;;;;;33.07;30.99;97936.44;5094022;28;19977;-88
2023/07/22 07:46:11;;;;;;;;;;;;;;;33.63;30.10;97929.31;5094155;28;20330;-90
2023/07/22 07:48:37;;;;;;;;;;;;;;;33.05;34.80;97934.06;5092683;28;19916;-88
2023/07/22 07:51:03;;;;;;;;;;;;;;;32.88;31.77;97941.59;5094077;28;19916;-86
2023/07/22 07:53:29;;;;;;;;;;;;;;;33.20;29.85;97946.16;5094532;28;19970;-87
2023/07/22 07:55:55;;;;;;;;;;;;;;;33.48;29.76;97940.75;5093970;28;20388;-88
2023/07/22 07:58:21;;;;;;;;;;;;;;;33.44;29.10;97938.13;5093752;28;19916;-88
2023/07/22 08:00:47;;;;;;;;;;;;;;;33.64;29.96;97948.72;5096857;28;19930;-87
2023/07/22 08:03:13;;;;;;;;;;;;;;;33.96;30.07;97952.38;5114313;28;19922;-89
2023/07/22 08:05:39;;;;;;;;;;;;;;;33.89;29.74;97947.13;5114126;28;19923;-87
2023/07/22 08:08:05;;;;;;;;;;;;;;;33.72;29.97;97949.06;5114302;28;20462;-89
2023/07/22 08:10:32;;;;;;;;;;;;;;;33.74;29.55;97949.34;5098279;28;19959;-89
2023/07/22 08:12:59;;;;;;;;;;;;;;;33.98;29.41;97952.66;5093852;28;19923;-90
2023/07/22 08:15:25;;;;;;;;;;;;;;;33.84;29.52;97956.44;5094009;28;19934;-87
2023/07/22 08:17:51;;;;;;;;;;;;;;;33.86;29.02;97957.50;5099728;28;20022;-88
2023/07/22 08:20:17;;;;;;;;;;;;;;;33.85;30.55;97943.72;5114122;28;20371;-87
2023/07/22 08:22:43;;;;;;;;;;;;;;;33.20;35.92;97949.00;5095928;28;19920;-87
2023/07/22 08:25:09;;;;;;;;;;;;;;;32.85;29.86;97959.66;5114023;28;19922;-87
2023/07/22 08:27:35;;;;;;;;;;;;;;;33.22;29.61;97974.91;5112863;28;20297;-87
2023/07/22 08:30:01;;;;;;;;;;;;;;;33.44;28.21;97968.69;5114069;28;19918;-88
2023/07/22 08:32:27;;;;;;;;;;;;;;;33.40;32.25;97963.19;5095705;28;19931;-87
2023/07/22 08:34:53;;;;;;;;;;;;;;;33.20;30.00;97979.53;5113875;28;19916;-88
2023/07/22 08:37:19;;;;;;;;;;;;;;;32.49;28.90;97977.19;5113739;28;20006;-87
2023/07/22 08:39:45;;;;;;;;;;;;;;;31.57;39.17;97984.41;5114011;28;19955;-89
2023/07/22 08:42:13;;;;;;;;;;;;;;;32.54;33.76;97991.53;5113682;28;19985;-88
2023/07/22 08:44:43;;;;;;;;;;;;;;;33.70;27.74;97991.50;5113300;28;19916;-90
2023/07/22 08:47:14;;;;;;;;;;;;;;;32.85;31.04;97998.69;5114013;28;20359;-87
2023/07/22 08:49:45;;;;;;;;;;;;;;;33.48;29.98;98000.56;5113731;28;19911;-88
2023/07/22 08:52:12;;;;;;;;;;;;;;;33.56;27.88;98004.53;5113965;28;19959;-90
2023/07/22 08:54:38;;;;;;;;;;;;;;;33.99;28.23;98003.44;5114104;28;20370;-89
2023/07/22 08:57:04;;;;;;;;;;;;;;;33.24;28.17;98000.78;5113533;28;20367;-88
2023/07/22 08:59:31;;;;;;;;;;;;;;;33.56;28.54;98007.38;5095617;28;19998;-90
2023/07/22 09:01:57;;;;;;;;;;;;;;;33.05;28.32;98007.28;5093959;28;19939;-87
2023/07/22 09:04:23;;;;;;;;;;;;;;;33.25;30.24;98010.91;5093533;28;19916;-88
2023/07/22 09:06:50;;;;;;;;;;;;;;;33.13;30.44;98009.19;5093353;28;20080;-87
2023/07/22 09:09:17;;;;;;;;;;;;;;;33.72;27.76;98003.97;5093392;28;19916;-90
2023/07/22 09:11:45;;;;;;;;;;;;;;;33.38;27.38;98008.47;5093226;28;19956;-88
2023/07/22 09:14:12;;;;;;;;;;;;;;;33.91;27.11;98008.00;5097181;28;19916;-88
2023/07/22 09:16:38;;;;;;;;;;;;;;;33.14;30.65;98016.44;5097181;28;19916;-88
2023/07/22 09:19:05;;;;;;;;;;;;;;;33.02;28.62;98017.59;5105228;28;20264;-90
2023/07/22 09:21:35;;;;;;;;;;;;;;;33.43;28.38;98016.28;5117486;28;20407;-89
2023/07/22 09:24:02;;;;;;;;;;;;;;;34.07;30.34;98018.81;5117593;28;20354;-89
2023/07/22 09:26:32;;;;;;;;;;;;;;;33.60;32.19;98025.06;5117279;28;19916;-90
2023/07/22 09:28:58;;;;;;;;;;;;;;;34.04;31.03;98022.69;5117193;28;19916;-88
2023/07/22 09:31:26;;;;;;;;;;;;;;;33.63;30.29;98028.97;5117038;28;19915;-91
2023/07/22 09:33:56;;;;;;;;;;;;;;;33.57;28.59;98031.75;5116555;28;19916;-88
2023/07/22 09:36:22;;;;;;;;;;;;;;;33.87;27.06;98040.88;5116909;28;19931;-89
2023/07/22 09:39:02;;;;;;;;;;;;;;;33.99;27.50;98043.34;5116938;28;19947;-89
2023/07/22 09:41:30;;;;;;;;;;;;;;;34.34;27.69;98031.75;5117068;28;20010;-89
2023/07/22 09:43:56;;;;;;;;;;;;;;;33.92;27.42;98031.59;5116884;28;20368;-87
2023/07/22 09:46:30;;;;;;;;;;;;;;;33.50;28.23;98032.16;5115336;28;20272;-89
2023/07/22 09:48:56;;;;;;;;;;;;;;;33.62;28.63;98033.09;5078341;28;20400;-87
2023/07/22 09:51:22;;;;;;;;;;;;;;;33.79;28.07;98034.06;5078813;28;19916;-87
2023/07/22 09:53:59;;;;;;;;;;;;;;;33.29;33.42;98030.59;5077894;28;20371;-86
2023/07/22 09:56:25;;;;;;;;;;;;;;;33.96;28.09;98023.59;5096310;28;19966;-88
2023/07/22 09:58:52;;;;;;;;;;;;;;;34.33;29.02;98026.56;5096213;28;19922;-91
2023/07/22 10:01:25;;;;;;;;;;;;;;;34.47;27.00;98019.94;5096165;28;20341;-86
2023/07/22 10:03:54;;;;;;;;;;;;;;;34.19;27.12;98013.22;5112225;28;19916;-88
2023/07/22 10:06:22;;;;;;;;;;;;;;;34.04;26.05;98022.69;5116718;28;20026;-87
2023/07/22 10:08:48;;;;;;;;;;;;;;;33.93;27.48;98024.63;5106448;28;19919;-89
2023/07/22 10:11:15;;;;;;;;;;;;;;;34.14;25.52;98019.66;5096277;28;19923;-87
2023/07/22 10:13:41;;;;;;;;;;;;;;;34.24;26.31;98026.75;5096098;28;19916;-87
2023/07/22 10:16:07;;;;;;;;;;;;;;;33.40;28.04;98020.13;5095833;28;19927;-87
2023/07/22 10:18:34;;;;;;;;;;;;;;;33.87;29.84;98021.72;5095783;28;19951;-89
2023/07/22 10:21:01;;;;;;;;;;;;;;;33.85;28.26;98017.78;5095806;28;19920;-88
2023/07/22 10:23:27;;;;;;;;;;;;;;;33.91;27.82;98012.94;5094961;28;19920;-88
2023/07/22 10:25:54;;;;;;;;;;;;;;;33.89;27.79;98015.50;5096248;28;19948;-87
2023/07/22 10:28:21;;;;;;;;;;;;;;;35.03;26.59;98001.16;5095674;28;19916;-89
2023/07/22 10:30:47;;;;;;;;;;;;;;;34.61;26.89;98016.94;5097668;28;19962;-87
2023/07/22 10:33:14;;;;;;;;;;;;;;;34.14;27.36;98025.38;5116013;28;19940;-88
2023/07/22 10:35:44;;;;;;;;;;;;;;;34.98;27.18;98025.50;5115731;28;19924;-90
2023/07/22 10:38:11;;;;;;;;;;;;;;;35.18;27.84;98010.28;5115727;28;19916;-89
2023/07/22 10:40:54;;;;;;;;;;;;;;;34.89;25.80;98016.34;5115491;28;19919;-88
2023/07/22 10:43:39;;;;;;;;;;;;;;;35.49;25.61;98006.53;5101278;28;20391;-89
2023/07/22 10:46:12;;;;;;;;;;;;;;;35.90;23.23;98005.59;5095264;28;20284;-89
2023/07/22 10:48:41;;;;;;;;;;;;;;;35.07;24.56;98004.53;5111109;28;20384;-89
2023/07/22 10:51:10;;;;;;;;;;;;;;;34.96;26.45;97998.75;5115859;28;19922;-88
2023/07/22 10:53:40;;;;;;;;;;;;;;;35.32;24.65;98001.53;5096835;28;20268;-89
2023/07/22 10:56:11;;;;;;;;;;;;;;;35.76;24.19;98008.69;5115689;28;19920;-89
2023/07/22 10:58:46;;;;;;;;;;;;;;;35.63;27.96;98006.34;5115075;28;19939;-88
2023/07/22 11:01:24;;;;;;;;;;;;;;;35.20;24.91;98016.28;5095596;28;19920;-87
2023/07/22 11:04:12;;;;;;;;;;;;;;;34.90;26.92;98023.63;5111210;28;19943;-89
2023/07/22 11:06:45;;;;;;;;;;;;;;;34.53;28.98;98023.63;5114914;28;20385;-88
2023/07/22 11:09:27;;;;;;;;;;;;;;;33.61;30.83;98014.47;5115466;28;19923;-87
2023/07/22 11:11:54;;;;;;;;;;;;;;;34.29;26.40;98015.38;5115187;28;20383;-89
2023/07/22 11:14:21;;;;;;;;;;;;;;;34.12;27.81;98017.31;5115171;28;20064;-88
2023/07/22 11:16:47;;;;;;;;;;;;;;;34.73;25.90;98010.03;5070340;28;19920;-90
2023/07/22 11:19:17;;;;;;;;;;;;;;;35.24;26.26;97996.84;5094892;28;19916;-88
2023/07/22 11:21:45;;;;;;;;;;;;;;;35.38;23.86;98010.13;5094555;28;19962;-88
2023/07/22 11:24:11;;;;;;;;;;;;;;;35.66;23.90;98002.44;5094429;28;19916;-89
2023/07/22 11:26:38;;;;;;;;;;;;;;;35.89;23.70;98003.28;5094701;28;19961;-88
2023/07/22 11:29:05;;;;;;;;;;;;;;;35.02;23.99;98006.06;5094448;28;19916;-88
2023/07/22 11:31:31;;;;;;;;;;;;;;;35.41;25.39;98003.38;5094458;28;19916;-90
2023/07/22 11:33:58;;;;;;;;;;;;;;;36.14;23.15;98004.34;5108880;28;19969;-91
2023/07/22 11:36:25;;;;;;;;;;;;;;;35.99;22.23;98002.53;5114156;28;19920;-89
2023/07/22 11:38:51;;;;;;;;;;;;;;;35.62;22.78;98004.78;5114777;28;19931;-90
2023/07/22 11:41:17;;;;;;;;;;;;;;;36.04;23.65;98006.69;5114678;28;19912;-89
2023/07/22 11:43:43;;;;;;;;;;;;;;;36.21;23.08;98012.41;5114532;28;19923;-90
2023/07/22 11:46:09;;;;;;;;;;;;;;;35.70;23.48;98002.19;5107988;28;19916;-89
2023/07/22 11:48:35;;;;;;;;;;;;;;;36.15;25.47;98005.94;5094458;28;19920;-90
2023/07/22 11:51:02;;;;;;;;;;;;;;;36.00;25.80;98001.25;5094789;28;19999;-90
2023/07/22 11:53:28;;;;;;;;;;;;;;;35.98;22.62;98006.69;5094040;28;19917;-88
2023/07/22 11:55:55;;;;;;;;;;;;;;;36.08;23.34;98007.22;5094104;28;20008;-89
2023/07/22 11:58:27;;;;;;;;;;;;;;;35.00;27.08;98007.84;5094020;28;19920;-88
2023/07/22 12:01:06;;;;;;;;;;;;;;;35.25;24.99;98009.81;5093998;28;19916;-89
2023/07/22 12:03:33;;;;;;;;;;;;;;;36.19;23.56;97992.94;5107556;28;19916;-92
2023/07/22 12:06:03;;;;;;;;;;;;;;;36.85;23.71;98000.69;5113892;28;20386;-90
2023/07/22 12:08:29;;;;;;;;;;;;;;;37.24;21.45;98009.19;5098572;28;19978;-89
2023/07/22 12:10:58;;;;;;;;;;;;;;;36.61;23.51;98006.97;5093880;28;19912;-90
2023/07/22 12:13:24;;;;;;;;;;;;;;;37.18;21.69;97989.13;5094168;28;20030;-89
2023/07/22 12:16:00;;;;;;;;;;;;;;;36.28;23.19;97992.66;5094107;28;20283;-88
2023/07/22 12:18:26;;;;;;;;;;;;;;;35.55;24.19;98002.41;5093840;28;19950;-89
2023/07/22 12:20:52;;;;;;;;;;;;;;;34.65;23.72;98002.47;5093883;28;19924;-89
2023/07/22 12:23:18;;;;;;;;;;;;;;;34.63;30.07;98017.25;5093843;28;19922;-90
2023/07/22 12:25:44;;;;;;;;;;;;;;;35.60;24.29;97998.78;5094115;28;20372;-90
2023/07/22 12:28:10;;;;;;;;;;;;;;;36.07;22.62;97999.94;5093925;28;19985;-91
2023/07/22 12:30:36;;;;;;;;;;;;;;;35.81;22.84;97994.44;5075694;28;20368;-90
2023/07/22 12:33:02;;;;;;;;;;;;;;;36.06;22.22;97992.66;5100875;28;19923;-89
2023/07/22 12:35:28;;;;;;;;;;;;;;;36.71;21.81;97993.19;5114199;28;19916;-89
2023/07/22 12:37:55;;;;;;;;;;;;;;;36.63;21.71;97998.66;5114039;28;19920;-89
2023/07/22 12:40:21;;;;;;;;;;;;;;;35.68;30.76;97994.16;5113880;28;19942;-89
2023/07/22 12:42:47;;;;;;;;;;;;;;;36.63;22.49;97998.66;5113060;28;19916;-90
2023/07/22 12:45:13;;;;;;;;;;;;;;;36.55;22.64;97986.16;5103964;28;19924;-88
2023/07/22 12:47:39;;;;;;;;;;;;;;;36.17;25.77;97977.59;5095205;28;19923;-90